sensor_id;sensor_type;location;lat;lon;timestamp;temperature;humidity
53645;DHT22;39547;45.554;12.068;2022-07-25T00:01:58;28.80;45.70
53645;DHT22;39547;45.554;12.068;2022-07-25T00:08:00;28.70;46.40
53645;DHT22;39547;45.554;12.068;2022-07-25T00:14:02;28.60;46.60
53645;DHT22;39547;45.554;12.068;2022-07-25T00:20:04;28.50;47.10
53645;DHT22;39547;45.554;12.068;2022-07-25T00:26:05;28.40;47.00
53645;DHT22;39547;45.554;12.068;2022-07-25T00:32:07;28.30;47.40
53645;DHT22;39547;45.554;12.068;2022-07-25T00:38:09;28.20;47.40
53645;DHT22;39547;45.554;12.068;2022-07-25T00:44:24;28.10;47.70
53645;DHT22;39547;45.554;12.068;2022-07-25T00:50:26;28.10;48.20
53645;DHT22;39547;45.554;12.068;2022-07-25T00:56:27;28.00;48.20
53645;DHT22;39547;45.554;12.068;2022-07-25T01:02:29;28.00;48.40
53645;DHT22;39547;45.554;12.068;2022-07-25T01:08:31;28.00;48.40
53645;DHT22;39547;45.554;12.068;2022-07-25T01:14:32;27.90;48.70
53645;DHT22;39547;45.554;12.068;2022-07-25T01:20:34;27.90;48.80
53645;DHT22;39547;45.554;12.068;2022-07-25T01:26:37;27.80;49.20
53645;DHT22;39547;45.554;12.068;2022-07-25T01:32:39;27.80;49.60
53645;DHT22;39547;45.554;12.068;2022-07-25T01:38:41;27.70;49.70
53645;DHT22;39547;45.554;12.068;2022-07-25T01:44:42;27.60;49.90
53645;DHT22;39547;45.554;12.068;2022-07-25T01:50:44;27.50;50.60
53645;DHT22;39547;45.554;12.068;2022-07-25T01:56:45;27.40;50.50
53645;DHT22;39547;45.554;12.068;2022-07-25T02:02:47;27.40;50.80
53645;DHT22;39547;45.554;12.068;2022-07-25T02:08:48;27.40;50.80
53645;DHT22;39547;45.554;12.068;2022-07-25T02:14:49;27.30;51.00
53645;DHT22;39547;45.554;12.068;2022-07-25T02:20:51;27.30;50.90
53645;DHT22;39547;45.554;12.068;2022-07-25T02:26:52;27.30;51.20
53645;DHT22;39547;45.554;12.068;2022-07-25T02:32:54;27.30;51.50
53645;DHT22;39547;45.554;12.068;2022-07-25T02:38:55;27.20;51.90
53645;DHT22;39547;45.554;12.068;2022-07-25T02:44:57;27.20;52.10
53645;DHT22;39547;45.554;12.068;2022-07-25T02:50:58;27.10;52.30
53645;DHT22;39547;45.554;12.068;2022-07-25T02:57:00;27.10;52.70
53645;DHT22;39547;45.554;12.068;2022-07-25T03:03:01;27.00;52.70
53645;DHT22;39547;45.554;12.068;2022-07-25T03:09:03;27.00;53.10
53645;DHT22;39547;45.554;12.068;2022-07-25T03:15:06;26.90;53.10
53645;DHT22;39547;45.554;12.068;2022-07-25T03:21:07;26.90;53.50
53645;DHT22;39547;45.554;12.068;2022-07-25T03:27:09;26.80;53.90
53645;DHT22;39547;45.554;12.068;2022-07-25T03:33:11;26.80;54.10
53645;DHT22;39547;45.554;12.068;2022-07-25T03:39:12;26.80;54.30
53645;DHT22;39547;45.554;12.068;2022-07-25T03:45:14;26.80;54.00
53645;DHT22;39547;45.554;12.068;2022-07-25T03:51:16;26.70;53.80
53645;DHT22;39547;45.554;12.068;2022-07-25T03:57:18;26.70;53.90
53645;DHT22;39547;45.554;12.068;2022-07-25T04:03:19;26.70;54.00
53645;DHT22;39547;45.554;12.068;2022-07-25T04:09:21;26.60;54.10
53645;DHT22;39547;45.554;12.068;2022-07-25T04:15:22;26.70;54.10
53645;DHT22;39547;45.554;12.068;2022-07-25T04:21:24;26.70;53.80
53645;DHT22;39547;45.554;12.068;2022-07-25T04:27:26;26.70;54.00
53645;DHT22;39547;45.554;12.068;2022-07-25T04:33:28;26.70;54.00
53645;DHT22;39547;45.554;12.068;2022-07-25T04:39:29;26.80;54.00
53645;DHT22;39547;45.554;12.068;2022-07-25T04:45:31;26.80;53.90
53645;DHT22;39547;45.554;12.068;2022-07-25T04:51:33;26.80;53.80
53645;DHT22;39547;45.554;12.068;2022-07-25T04:57:34;26.90;53.80
53645;DHT22;39547;45.554;12.068;2022-07-25T05:03:35;26.90;53.90
53645;DHT22;39547;45.554;12.068;2022-07-25T05:09:37;27.00;53.80
53645;DHT22;39547;45.554;12.068;2022-07-25T05:15:39;27.10;53.80
53645;DHT22;39547;45.554;12.068;2022-07-25T05:21:40;27.20;53.60
53645;DHT22;39547;45.554;12.068;2022-07-25T05:27:42;27.30;53.50
53645;DHT22;39547;45.554;12.068;2022-07-25T05:33:43;27.30;53.50
53645;DHT22;39547;45.554;12.068;2022-07-25T05:39:45;27.30;53.20
53645;DHT22;39547;45.554;12.068;2022-07-25T05:45:46;27.50;53.10
53645;DHT22;39547;45.554;12.068;2022-07-25T05:51:48;27.60;52.90
53645;DHT22;39547;45.554;12.068;2022-07-25T05:57:49;27.80;52.80
53645;DHT22;39547;45.554;12.068;2022-07-25T06:03:51;27.90;52.70
53645;DHT22;39547;45.554;12.068;2022-07-25T06:09:52;28.10;52.60
53645;DHT22;39547;45.554;12.068;2022-07-25T06:15:53;28.30;52.20
53645;DHT22;39547;45.554;12.068;2022-07-25T06:21:55;28.50;52.30
53645;DHT22;39547;45.554;12.068;2022-07-25T06:27:56;28.70;51.90
53645;DHT22;39547;45.554;12.068;2022-07-25T06:33:58;28.80;51.50
53645;DHT22;39547;45.554;12.068;2022-07-25T06:39:59;29.00;51.10
53645;DHT22;39547;45.554;12.068;2022-07-25T06:46:01;29.30;50.90
53645;DHT22;39547;45.554;12.068;2022-07-25T06:52:04;29.40;50.60
53645;DHT22;39547;45.554;12.068;2022-07-25T06:58:05;29.60;50.30
53645;DHT22;39547;45.554;12.068;2022-07-25T07:04:07;29.80;50.20
53645;DHT22;39547;45.554;12.068;2022-07-25T07:10:08;29.90;49.90
53645;DHT22;39547;45.554;12.068;2022-07-25T07:16:10;30.00;49.90
53645;DHT22;39547;45.554;12.068;2022-07-25T07:22:11;30.20;49.70
53645;DHT22;39547;45.554;12.068;2022-07-25T07:28:13;30.40;49.40
53645;DHT22;39547;45.554;12.068;2022-07-25T07:34:15;30.60;49.10
53645;DHT22;39547;45.554;12.068;2022-07-25T07:40:17;30.80;48.80
53645;DHT22;39547;45.554;12.068;2022-07-25T07:46:19;31.00;48.50
53645;DHT22;39547;45.554;12.068;2022-07-25T07:52:20;31.20;48.20
53645;DHT22;39547;45.554;12.068;2022-07-25T07:58:22;31.30;47.90
53645;DHT22;39547;45.554;12.068;2022-07-25T08:04:23;31.50;47.70
53645;DHT22;39547;45.554;12.068;2022-07-25T08:10:27;31.60;47.30
53645;DHT22;39547;45.554;12.068;2022-07-25T08:16:29;31.80;46.80
53645;DHT22;39547;45.554;12.068;2022-07-25T08:22:35;32.00;46.40
53645;DHT22;39547;45.554;12.068;2022-07-25T08:28:37;32.20;45.90
53645;DHT22;39547;45.554;12.068;2022-07-25T08:34:38;32.40;45.50
53645;DHT22;39547;45.554;12.068;2022-07-25T08:40:40;32.50;44.90
53645;DHT22;39547;45.554;12.068;2022-07-25T08:46:42;32.70;44.50
53645;DHT22;39547;45.554;12.068;2022-07-25T08:52:45;32.90;44.40
53645;DHT22;39547;45.554;12.068;2022-07-25T08:58:47;33.10;44.10
53645;DHT22;39547;45.554;12.068;2022-07-25T09:04:49;33.30;43.80
53645;DHT22;39547;45.554;12.068;2022-07-25T09:10:52;33.40;43.50
53645;DHT22;39547;45.554;12.068;2022-07-25T09:16:53;33.50;42.90
53645;DHT22;39547;45.554;12.068;2022-07-25T09:22:55;33.80;42.90
53645;DHT22;39547;45.554;12.068;2022-07-25T09:28:56;33.90;42.20
53645;DHT22;39547;45.554;12.068;2022-07-25T09:34:59;34.10;41.70
53645;DHT22;39547;45.554;12.068;2022-07-25T09:41:01;34.30;40.90
53645;DHT22;39547;45.554;12.068;2022-07-25T09:47:11;34.60;40.70
53645;DHT22;39547;45.554;12.068;2022-07-25T09:53:13;34.80;40.40
53645;DHT22;39547;45.554;12.068;2022-07-25T09:59:14;35.00;39.60
53645;DHT22;39547;45.554;12.068;2022-07-25T10:12:04;35.30;38.70
53645;DHT22;39547;45.554;12.068;2022-07-25T10:18:06;35.50;38.40
53645;DHT22;39547;45.554;12.068;2022-07-25T10:24:09;35.70;38.10
53645;DHT22;39547;45.554;12.068;2022-07-25T10:30:21;35.80;37.60
53645;DHT22;39547;45.554;12.068;2022-07-25T10:36:25;35.90;36.50
53645;DHT22;39547;45.554;12.068;2022-07-25T10:42:33;36.00;36.00
53645;DHT22;39547;45.554;12.068;2022-07-25T10:48:36;36.10;35.70
53645;DHT22;39547;45.554;12.068;2022-07-25T10:54:38;36.30;35.50
53645;DHT22;39547;45.554;12.068;2022-07-25T11:00:42;36.50;35.00
53645;DHT22;39547;45.554;12.068;2022-07-25T11:06:45;36.60;34.50
53645;DHT22;39547;45.554;12.068;2022-07-25T11:12:46;36.70;34.40
53645;DHT22;39547;45.554;12.068;2022-07-25T11:18:48;37.00;34.60
53645;DHT22;39547;45.554;12.068;2022-07-25T11:24:49;37.10;33.90
53645;DHT22;39547;45.554;12.068;2022-07-25T11:30:51;37.30;34.10
53645;DHT22;39547;45.554;12.068;2022-07-25T11:36:55;37.60;34.00
53645;DHT22;39547;45.554;12.068;2022-07-25T11:42:57;37.80;33.70
53645;DHT22;39547;45.554;12.068;2022-07-25T11:49:03;37.90;32.60
53645;DHT22;39547;45.554;12.068;2022-07-25T11:55:07;37.90;32.10
53645;DHT22;39547;45.554;12.068;2022-07-25T12:01:14;37.90;32.80
53645;DHT22;39547;45.554;12.068;2022-07-25T12:07:15;38.30;32.60
53645;DHT22;39547;45.554;12.068;2022-07-25T12:13:24;38.80;32.50
53645;DHT22;39547;45.554;12.068;2022-07-25T12:19:26;39.40;32.10
53645;DHT22;39547;45.554;12.068;2022-07-25T12:25:28;40.00;31.80
53645;DHT22;39547;45.554;12.068;2022-07-25T12:31:30;40.70;31.10
53645;DHT22;39547;45.554;12.068;2022-07-25T12:37:31;41.30;30.20
53645;DHT22;39547;45.554;12.068;2022-07-25T12:43:33;41.50;28.90
53645;DHT22;39547;45.554;12.068;2022-07-25T12:49:35;42.00;29.10
53645;DHT22;39547;45.554;12.068;2022-07-25T12:55:37;42.50;29.10
53645;DHT22;39547;45.554;12.068;2022-07-25T13:01:38;43.00;28.70
53645;DHT22;39547;45.554;12.068;2022-07-25T13:07:39;43.50;28.40
53645;DHT22;39547;45.554;12.068;2022-07-25T13:13:41;44.00;27.80
53645;DHT22;39547;45.554;12.068;2022-07-25T13:19:42;44.30;27.60
53645;DHT22;39547;45.554;12.068;2022-07-25T13:25:44;44.80;27.40
53645;DHT22;39547;45.554;12.068;2022-07-25T13:31:45;45.10;27.20
53645;DHT22;39547;45.554;12.068;2022-07-25T13:37:47;45.30;26.60
53645;DHT22;39547;45.554;12.068;2022-07-25T13:43:48;45.60;26.30
53645;DHT22;39547;45.554;12.068;2022-07-25T13:49:50;46.00;25.40
53645;DHT22;39547;45.554;12.068;2022-07-25T13:55:51;46.30;25.20
53645;DHT22;39547;45.554;12.068;2022-07-25T14:01:53;46.50;24.90
53645;DHT22;39547;45.554;12.068;2022-07-25T14:07:54;46.50;24.60
53645;DHT22;39547;45.554;12.068;2022-07-25T14:13:56;46.70;24.40
53645;DHT22;39547;45.554;12.068;2022-07-25T14:19:58;47.20;24.00
53645;DHT22;39547;45.554;12.068;2022-07-25T14:25:59;47.40;23.70
53645;DHT22;39547;45.554;12.068;2022-07-25T14:32:01;47.60;23.40
53645;DHT22;39547;45.554;12.068;2022-07-25T14:38:02;47.80;23.20
53645;DHT22;39547;45.554;12.068;2022-07-25T14:44:06;47.70;23.30
53645;DHT22;39547;45.554;12.068;2022-07-25T14:50:08;47.70;23.30
53645;DHT22;39547;45.554;12.068;2022-07-25T14:56:11;47.80;23.10
53645;DHT22;39547;45.554;12.068;2022-07-25T15:02:12;47.80;23.10
53645;DHT22;39547;45.554;12.068;2022-07-25T15:08:14;47.60;23.10
53645;DHT22;39547;45.554;12.068;2022-07-25T15:14:15;47.70;23.10
53645;DHT22;39547;45.554;12.068;2022-07-25T15:20:16;47.60;23.10
53645;DHT22;39547;45.554;12.068;2022-07-25T15:26:18;47.60;23.10
53645;DHT22;39547;45.554;12.068;2022-07-25T15:32:20;47.30;23.30
53645;DHT22;39547;45.554;12.068;2022-07-25T15:38:22;47.00;23.40
53645;DHT22;39547;45.554;12.068;2022-07-25T15:44:23;46.80;23.60
53645;DHT22;39547;45.554;12.068;2022-07-25T15:50:25;44.80;24.90
53645;DHT22;39547;45.554;12.068;2022-07-25T15:56:27;42.30;26.80
53645;DHT22;39547;45.554;12.068;2022-07-25T16:02:28;40.70;28.70
53645;DHT22;39547;45.554;12.068;2022-07-25T16:08:30;39.60;30.20
53645;DHT22;39547;45.554;12.068;2022-07-25T16:14:32;38.80;31.20
53645;DHT22;39547;45.554;12.068;2022-07-25T16:20:34;38.20;32.10
53645;DHT22;39547;45.554;12.068;2022-07-25T16:26:36;37.80;32.80
53645;DHT22;39547;45.554;12.068;2022-07-25T16:32:37;37.50;33.30
53645;DHT22;39547;45.554;12.068;2022-07-25T16:38:39;37.30;33.80
53645;DHT22;39547;45.554;12.068;2022-07-25T16:44:40;37.00;34.20
53645;DHT22;39547;45.554;12.068;2022-07-25T16:50:42;37.00;34.70
53645;DHT22;39547;45.554;12.068;2022-07-25T16:56:43;36.90;35.40
53645;DHT22;39547;45.554;12.068;2022-07-25T17:02:45;36.90;35.70
53645;DHT22;39547;45.554;12.068;2022-07-25T17:08:46;36.80;36.00
53645;DHT22;39547;45.554;12.068;2022-07-25T17:14:48;36.70;36.70
53645;DHT22;39547;45.554;12.068;2022-07-25T17:20:49;36.50;37.00
53645;DHT22;39547;45.554;12.068;2022-07-25T17:26:51;36.30;37.30
53645;DHT22;39547;45.554;12.068;2022-07-25T17:32:52;36.10;37.60
53645;DHT22;39547;45.554;12.068;2022-07-25T17:38:54;35.90;38.10
53645;DHT22;39547;45.554;12.068;2022-07-25T17:44:55;35.60;38.40
53645;DHT22;39547;45.554;12.068;2022-07-25T17:50:57;35.30;39.70
53645;DHT22;39547;45.554;12.068;2022-07-25T17:56:58;35.00;40.30
53645;DHT22;39547;45.554;12.068;2022-07-25T18:03:00;34.80;40.40
53645;DHT22;39547;45.554;12.068;2022-07-25T18:09:02;34.60;40.70
53645;DHT22;39547;45.554;12.068;2022-07-25T18:15:04;34.50;41.00
53645;DHT22;39547;45.554;12.068;2022-07-25T18:21:06;34.30;41.00
53645;DHT22;39547;45.554;12.068;2022-07-25T18:27:07;34.20;40.90
53645;DHT22;39547;45.554;12.068;2022-07-25T18:33:09;34.10;41.10
53645;DHT22;39547;45.554;12.068;2022-07-25T18:39:12;33.80;41.60
53645;DHT22;39547;45.554;12.068;2022-07-25T18:45:14;33.80;41.80
53645;DHT22;39547;45.554;12.068;2022-07-25T18:51:16;33.60;42.10
53645;DHT22;39547;45.554;12.068;2022-07-25T18:57:17;33.50;42.20
53645;DHT22;39547;45.554;12.068;2022-07-25T19:03:19;33.40;42.30
53645;DHT22;39547;45.554;12.068;2022-07-25T19:09:20;33.30;42.50
53645;DHT22;39547;45.554;12.068;2022-07-25T19:15:22;33.10;43.00
53645;DHT22;39547;45.554;12.068;2022-07-25T19:21:23;33.00;43.30
53645;DHT22;39547;45.554;12.068;2022-07-25T19:27:25;32.90;43.40
53645;DHT22;39547;45.554;12.068;2022-07-25T19:33:27;32.80;43.40
53645;DHT22;39547;45.554;12.068;2022-07-25T19:39:29;32.70;43.40
53645;DHT22;39547;45.554;12.068;2022-07-25T19:45:30;32.60;43.40
53645;DHT22;39547;45.554;12.068;2022-07-25T19:51:35;32.60;43.30
53645;DHT22;39547;45.554;12.068;2022-07-25T19:57:37;32.50;43.30
53645;DHT22;39547;45.554;12.068;2022-07-25T20:03:39;32.40;43.40
53645;DHT22;39547;45.554;12.068;2022-07-25T20:09:41;32.30;43.60
53645;DHT22;39547;45.554;12.068;2022-07-25T20:15:42;32.20;43.80
53645;DHT22;39547;45.554;12.068;2022-07-25T20:21:44;32.10;44.00
53645;DHT22;39547;45.554;12.068;2022-07-25T20:27:46;32.10;44.00
53645;DHT22;39547;45.554;12.068;2022-07-25T20:33:50;32.00;43.90
53645;DHT22;39547;45.554;12.068;2022-07-25T20:39:52;32.00;44.10
53645;DHT22;39547;45.554;12.068;2022-07-25T20:45:53;31.90;44.20
53645;DHT22;39547;45.554;12.068;2022-07-25T20:51:55;31.80;44.50
53645;DHT22;39547;45.554;12.068;2022-07-25T20:57:57;31.80;44.40
53645;DHT22;39547;45.554;12.068;2022-07-25T21:04:00;31.70;44.50
53645;DHT22;39547;45.554;12.068;2022-07-25T21:10:02;31.60;44.50
53645;DHT22;39547;45.554;12.068;2022-07-25T21:16:05;31.50;44.60
53645;DHT22;39547;45.554;12.068;2022-07-25T21:22:07;31.40;44.80
53645;DHT22;39547;45.554;12.068;2022-07-25T21:28:09;31.30;45.40
53645;DHT22;39547;45.554;12.068;2022-07-25T21:34:10;31.30;45.70
53645;DHT22;39547;45.554;12.068;2022-07-25T21:40:12;31.20;45.80
53645;DHT22;39547;45.554;12.068;2022-07-25T21:46:13;31.20;45.90
53645;DHT22;39547;45.554;12.068;2022-07-25T21:52:15;31.10;46.10
53645;DHT22;39547;45.554;12.068;2022-07-25T21:58:16;31.00;46.40
53645;DHT22;39547;45.554;12.068;2022-07-25T22:04:18;30.90;46.90
53645;DHT22;39547;45.554;12.068;2022-07-25T22:10:21;30.80;47.60
53645;DHT22;39547;45.554;12.068;2022-07-25T22:16:23;30.70;47.60
53645;DHT22;39547;45.554;12.068;2022-07-25T22:22:24;30.70;47.70
53645;DHT22;39547;45.554;12.068;2022-07-25T22:28:26;30.60;48.20
53645;DHT22;39547;45.554;12.068;2022-07-25T22:34:27;30.60;48.20
53645;DHT22;39547;45.554;12.068;2022-07-25T22:40:29;30.60;48.30
53645;DHT22;39547;45.554;12.068;2022-07-25T22:46:31;30.50;48.40
53645;DHT22;39547;45.554;12.068;2022-07-25T22:52:32;30.50;48.70
53645;DHT22;39547;45.554;12.068;2022-07-25T22:58:35;30.50;49.20
53645;DHT22;39547;45.554;12.068;2022-07-25T23:04:36;30.40;49.50
53645;DHT22;39547;45.554;12.068;2022-07-25T23:10:38;30.40;49.40
53645;DHT22;39547;45.554;12.068;2022-07-25T23:16:39;30.40;49.40
53645;DHT22;39547;45.554;12.068;2022-07-25T23:22:41;30.40;49.60
53645;DHT22;39547;45.554;12.068;2022-07-25T23:28:43;30.30;49.80
53645;DHT22;39547;45.554;12.068;2022-07-25T23:34:45;30.30;50.00
53645;DHT22;39547;45.554;12.068;2022-07-25T23:40:47;30.20;50.40
53645;DHT22;39547;45.554;12.068;2022-07-25T23:46:49;30.20;50.20
53645;DHT22;39547;45.554;12.068;2022-07-25T23:52:50;30.30;49.90
53645;DHT22;39547;45.554;12.068;2022-07-25T23:58:52;30.30;49.90
